Time;durP1;ratioP1;P1;durP2;ratioP2;P2;SDS_P1;SDS_P2;PMS_P1;PMS_P2;Temp;Humidity;BMP_temperature;BMP_pressure;BME280_temperature;BME280_humidity;BME280_pressure;Samples;Min_cycle;Max_cycle;Signal;HPM_P1;HPM_P2
2023/06/09 00:02:18;;;;;;;6.70;6.00;;;;;;;;;;5015699;28;20962;-60
2023/06/09 00:04:45;;;;;;;6.27;5.97;;;;;;;;;;5015397;28;20555;-60
2023/06/09 00:07:15;;;;;;;6.10;5.80;;;;;;;;;;5015617;28;20451;-60
2023/06/09 00:09:42;;;;;;;6.93;6.43;;;;;;;;;;5015636;28;20433;-60
2023/06/09 00:12:08;;;;;;;6.53;6.07;;;;;;;;;;5015525;28;20488;-60
2023/06/09 00:14:34;;;;;;;6.83;6.13;;;;;;;;;;5014101;28;20456;-60
2023/06/09 00:17:01;;;;;;;6.40;6.00;;;;;;;;;;5015586;28;20419;-60
2023/06/09 00:19:31;;;;;;;6.73;6.23;;;;;;;;;;5015303;28;20970;-60
2023/06/09 00:21:57;;;;;;;6.30;6.00;;;;;;;;;;5015657;28;20452;-60
2023/06/09 00:24:23;;;;;;;6.07;5.83;;;;;;;;;;5015008;28;21014;-60
2023/06/09 00:26:50;;;;;;;7.67;7.10;;;;;;;;;;5015237;28;20421;-60
2023/06/09 00:29:17;;;;;;;6.67;6.13;;;;;;;;;;5015045;28;20443;-60
2023/06/09 00:31:43;;;;;;;7.37;6.77;;;;;;;;;;5014941;28;20423;-60
2023/06/09 00:34:09;;;;;;;6.70;6.10;;;;;;;;;;5015013;28;20441;-60
2023/06/09 00:36:36;;;;;;;7.17;6.57;;;;;;;;;;5014992;28;20532;-60
2023/06/09 00:39:02;;;;;;;6.10;5.80;;;;;;;;;;5013550;28;20437;-60
2023/06/09 00:41:28;;;;;;;6.47;6.07;;;;;;;;;;5015051;28;20428;-60
2023/06/09 00:43:55;;;;;;;6.10;5.80;;;;;;;;;;5014670;28;20471;-60
2023/06/09 00:46:23;;;;;;;6.60;6.00;;;;;;;;;;5014914;28;20475;-60
2023/06/09 00:48:50;;;;;;;6.43;5.90;;;;;;;;;;5014359;28;20451;-60
2023/06/09 00:51:16;;;;;;;6.67;6.23;;;;;;;;;;5012707;28;20401;-60
2023/06/09 00:53:42;;;;;;;7.17;5.90;;;;;;;;;;5014339;28;20447;-60
2023/06/09 00:56:08;;;;;;;7.77;6.97;;;;;;;;;;5014792;28;20401;-60
2023/06/09 00:58:35;;;;;;;6.73;6.23;;;;;;;;;;5014377;28;20910;-60
2023/06/09 01:01:01;;;;;;;6.83;6.33;;;;;;;;;;5014328;28;21103;-60
2023/06/09 01:03:32;;;;;;;6.37;5.97;;;;;;;;;;5014523;28;20409;-60
2023/06/09 01:06:09;;;;;;;6.17;5.77;;;;;;;;;;5013200;28;20392;-60
2023/06/09 01:08:37;;;;;;;6.10;5.77;;;;;;;;;;5014091;28;20422;-60
2023/06/09 01:11:03;;;;;;;6.73;6.40;;;;;;;;;;5014135;28;20419;-60
2023/06/09 01:13:42;;;;;;;7.23;6.73;;;;;;;;;;5014026;28;20437;-60
2023/06/09 01:16:16;;;;;;;6.50;6.07;;;;;;;;;;5013945;28;20836;-60
2023/06/09 01:18:44;;;;;;;7.00;6.43;;;;;;;;;;5014011;28;20874;-60
2023/06/09 01:21:20;;;;;;;6.90;6.50;;;;;;;;;;5014019;28;20425;-60
2023/06/09 01:24:04;;;;;;;6.23;5.93;;;;;;;;;;5012902;28;20462;-60
2023/06/09 01:26:30;;;;;;;7.30;6.70;;;;;;;;;;5013895;28;20751;-60
2023/06/09 01:29:01;;;;;;;6.80;6.30;;;;;;;;;;5013744;28;20440;-60
2023/06/09 01:31:27;;;;;;;6.77;6.43;;;;;;;;;;5013776;28;20381;-60
2023/06/09 01:33:54;;;;;;;7.13;6.57;;;;;;;;;;5013677;28;20548;-60
2023/06/09 01:36:23;;;;;;;6.40;5.93;;;;;;;;;;5012386;28;20426;-60
2023/06/09 01:38:49;;;;;;;7.07;6.57;;;;;;;;;;5013514;28;20428;-60
2023/06/09 01:41:15;;;;;;;6.87;6.40;;;;;;;;;;5012365;28;20773;-60
2023/06/09 01:43:41;;;;;;;8.00;7.40;;;;;;;;;;5013547;28;20469;-60
2023/06/09 01:46:07;;;;;;;9.60;6.83;;;;;;;;;;5013540;28;20415;-60
2023/06/09 01:48:42;;;;;;;7.53;7.00;;;;;;;;;;5013537;28;20421;-60
2023/06/09 01:51:10;;;;;;;6.80;6.50;;;;;;;;;;5013497;28;20440;-60
2023/06/09 01:53:40;;;;;;;8.20;7.60;;;;;;;;;;5013331;28;20418;-60
2023/06/09 01:56:06;;;;;;;6.90;6.50;;;;;;;;;;5013352;28;20505;-60
2023/06/09 01:58:36;;;;;;;7.37;6.67;;;;;;;;;;5012049;28;20518;-60
2023/06/09 02:01:03;;;;;;;7.37;6.60;;;;;;;;;;5013281;28;20445;-60
2023/06/09 02:03:31;;;;;;;7.43;7.03;;;;;;;;;;5011954;28;20419;-60
2023/06/09 02:06:00;;;;;;;7.90;7.40;;;;;;;;;;5013188;28;20413;-60
2023/06/09 02:08:26;;;;;;;7.07;6.57;;;;;;;;;;5013209;28;20913;-60
2023/06/09 02:10:52;;;;;;;7.80;7.20;;;;;;;;;;5013134;28;20433;-60
2023/06/09 02:13:19;;;;;;;7.60;6.90;;;;;;;;;;5012878;28;20492;-60
2023/06/09 02:15:49;;;;;;;7.60;7.10;;;;;;;;;;5013079;28;20436;-60
2023/06/09 02:18:17;;;;;;;7.20;6.80;;;;;;;;;;5013387;28;20852;-60
2023/06/09 02:20:45;;;;;;;7.03;6.63;;;;;;;;;;5013033;28;20442;-60
2023/06/09 02:23:14;;;;;;;12.23;7.50;;;;;;;;;;5012944;28;20420;-60
2023/06/09 02:25:40;;;;;;;7.57;6.90;;;;;;;;;;5012767;28;20473;-60
2023/06/09 02:28:09;;;;;;;8.03;7.07;;;;;;;;;;5012908;28;20472;-60
2023/06/09 02:30:35;;;;;;;8.00;7.40;;;;;;;;;;5012904;28;20460;-60
2023/06/09 02:33:01;;;;;;;9.63;7.90;;;;;;;;;;5012864;28;20522;-60
2023/06/09 02:35:30;;;;;;;7.63;6.43;;;;;;;;;;5012647;28;20515;-60
2023/06/09 02:38:00;;;;;;;7.93;7.30;;;;;;;;;;5012845;28;20427;-60
2023/06/09 02:40:28;;;;;;;7.13;6.67;;;;;;;;;;5012697;28;20519;-60
2023/06/09 02:42:54;;;;;;;8.03;7.30;;;;;;;;;;5012813;28;20462;-60
2023/06/09 02:45:22;;;;;;;7.50;7.03;;;;;;;;;;5012486;28;20471;-60
2023/06/09 02:47:48;;;;;;;7.37;6.97;;;;;;;;;;5012821;28;20771;-60
2023/06/09 02:50:14;;;;;;;7.60;6.90;;;;;;;;;;5012654;28;20512;-60
2023/06/09 02:52:42;;;;;;;8.27;7.57;;;;;;;;;;5012641;28;20436;-60
2023/06/09 02:55:11;;;;;;;8.40;7.80;;;;;;;;;;5012571;28;20438;-60
2023/06/09 02:57:37;;;;;;;8.20;7.50;;;;;;;;;;5013033;28;20428;-60
2023/06/09 03:00:07;;;;;;;8.60;8.00;;;;;;;;;;5012644;28;20937;-60
2023/06/09 03:02:36;;;;;;;10.27;6.97;;;;;;;;;;5012605;28;20830;-60
2023/06/09 03:05:02;;;;;;;10.13;7.30;;;;;;;;;;5012535;28;20477;-60
2023/06/09 03:07:31;;;;;;;8.50;7.90;;;;;;;;;;5012457;28;20419;-60
2023/06/09 03:09:59;;;;;;;7.87;7.20;;;;;;;;;;5012463;28;20443;-60
2023/06/09 03:12:25;;;;;;;15.63;7.37;;;;;;;;;;5012393;28;20431;-60
2023/06/09 03:14:54;;;;;;;8.07;7.47;;;;;;;;;;5014726;28;20968;-60
2023/06/09 03:17:20;;;;;;;7.27;6.77;;;;;;;;;;5016157;28;20427;-60
2023/06/09 03:19:46;;;;;;;7.90;7.30;;;;;;;;;;5016268;28;20415;-60
2023/06/09 03:22:12;;;;;;;8.33;7.30;;;;;;;;;;5016132;28;20489;-60
2023/06/09 03:24:40;;;;;;;8.40;7.80;;;;;;;;;;5015985;28;20474;-60
2023/06/09 03:27:09;;;;;;;10.93;7.37;;;;;;;;;;5016134;28;20887;-60
2023/06/09 03:29:35;;;;;;;8.87;8.03;;;;;;;;;;5015870;28;20411;-60
2023/06/09 03:32:01;;;;;;;7.43;6.93;;;;;;;;;;5015882;28;20582;-60
2023/06/09 03:34:27;;;;;;;8.57;7.80;;;;;;;;;;5016140;28;20419;-60
2023/06/09 03:36:53;;;;;;;10.57;8.60;;;;;;;;;;5016010;28;20502;-60
2023/06/09 03:39:19;;;;;;;9.17;8.23;;;;;;;;;;5015854;28;20467;-60
2023/06/09 03:41:45;;;;;;;8.40;7.73;;;;;;;;;;5015708;28;20517;-60
2023/06/09 03:44:11;;;;;;;9.20;8.30;;;;;;;;;;5016026;28;20470;-60
2023/06/09 03:46:37;;;;;;;8.77;7.93;;;;;;;;;;5016044;28;20511;-60
2023/06/09 03:49:05;;;;;;;9.37;8.57;;;;;;;;;;5015651;28;20440;-60
2023/06/09 03:51:31;;;;;;;8.20;7.50;;;;;;;;;;5014233;28;20443;-60
2023/06/09 03:53:59;;;;;;;8.30;7.53;;;;;;;;;;5015429;28;20423;-60
2023/06/09 03:56:25;;;;;;;8.30;7.80;;;;;;;;;;5015427;28;20443;-60
2023/06/09 03:58:53;;;;;;;9.60;8.70;;;;;;;;;;5014128;28;20435;-60
2023/06/09 04:01:18;;;;;;;9.80;8.00;;;;;;;;;;5015168;28;20478;-60
2023/06/09 04:03:44;;;;;;;11.13;7.70;;;;;;;;;;5015347;28;20502;-60
2023/06/09 04:06:13;;;;;;;8.13;7.40;;;;;;;;;;5015273;28;20435;-60
2023/06/09 04:08:39;;;;;;;8.27;7.53;;;;;;;;;;5015113;28;20934;-60
2023/06/09 04:11:05;;;;;;;8.70;7.50;;;;;;;;;;5015315;28;20440;-60
2023/06/09 04:13:33;;;;;;;8.33;7.53;;;;;;;;;;5014669;28;20651;-60
2023/06/09 04:15:59;;;;;;;8.03;7.13;;;;;;;;;;5015424;28;20425;-60
2023/06/09 04:18:26;;;;;;;11.43;7.70;;;;;;;;;;5013929;28;20793;-60
2023/06/09 04:20:55;;;;;;;8.03;7.33;;;;;;;;;;5015375;28;20574;-60
2023/06/09 04:23:21;;;;;;;8.50;7.80;;;;;;;;;;5014908;28;20445;-60
2023/06/09 04:25:47;;;;;;;7.30;6.70;;;;;;;;;;5013784;28;20475;-60
2023/06/09 04:28:17;;;;;;;9.57;8.80;;;;;;;;;;5014932;28;20415;-60
2023/06/09 04:30:44;;;;;;;7.43;6.93;;;;;;;;;;5014836;28;20494;-60
2023/06/09 04:33:10;;;;;;;9.20;8.30;;;;;;;;;;5014814;28;20419;-60
2023/06/09 04:35:36;;;;;;;8.73;8.23;;;;;;;;;;5013360;28;20970;-60
2023/06/09 04:38:03;;;;;;;8.80;8.10;;;;;;;;;;5014724;28;20432;-60
2023/06/09 04:40:29;;;;;;;7.87;7.00;;;;;;;;;;5014627;28;20448;-60
2023/06/09 04:43:01;;;;;;;9.43;8.60;;;;;;;;;;5015120;28;20437;-60
2023/06/09 04:45:27;;;;;;;9.10;8.40;;;;;;;;;;5014460;28;20626;-60
2023/06/09 04:47:59;;;;;;;9.80;9.00;;;;;;;;;;5014484;28;20444;-60
2023/06/09 04:50:26;;;;;;;14.53;9.80;;;;;;;;;;5014432;28;20411;-60
2023/06/09 04:52:51;;;;;;;47.00;32.70;;;;;;;;;;5014489;28;20397;-60
2023/06/09 04:55:20;;;;;;;24.77;20.10;;;;;;;;;;5014618;28;20451;-60
2023/06/09 04:57:46;;;;;;;19.30;16.53;;;;;;;;;;5014370;28;20417;-60
2023/06/09 05:00:16;;;;;;;10.70;9.70;;;;;;;;;;5014387;28;20506;-60
2023/06/09 05:02:44;;;;;;;11.23;8.80;;;;;;;;;;5014190;28;20915;-60
2023/06/09 05:05:10;;;;;;;10.70;9.57;;;;;;;;;;5013005;28;20878;-60
2023/06/09 05:07:39;;;;;;;9.37;8.47;;;;;;;;;;5014077;28;20408;-60
2023/06/09 05:10:06;;;;;;;10.90;9.77;;;;;;;;;;5014304;28;20431;-60
2023/06/09 05:12:32;;;;;;;9.97;9.17;;;;;;;;;;5013988;28;20482;-60
2023/06/09 05:14:58;;;;;;;9.30;8.60;;;;;;;;;;5014084;28;20772;-60
2023/06/09 05:17:25;;;;;;;11.17;9.50;;;;;;;;;;5014002;28;20416;-60
2023/06/09 05:19:51;;;;;;;10.20;9.30;;;;;;;;;;5012534;28;20475;-60
2023/06/09 05:22:17;;;;;;;10.10;9.27;;;;;;;;;;5013996;28;20445;-60
2023/06/09 05:24:43;;;;;;;10.30;9.50;;;;;;;;;;5013665;28;20475;-60
2023/06/09 05:27:10;;;;;;;11.13;9.63;;;;;;;;;;5013884;28;20432;-60
2023/06/09 05:29:39;;;;;;;10.67;9.80;;;;;;;;;;5013809;28;20480;-60
2023/06/09 05:32:05;;;;;;;9.20;8.50;;;;;;;;;;5013826;28;20923;-60
2023/06/09 05:34:31;;;;;;;11.30;10.20;;;;;;;;;;5013592;28;20547;-60
2023/06/09 05:36:57;;;;;;;10.80;9.70;;;;;;;;;;5012900;28;20607;-60
2023/06/09 05:39:23;;;;;;;10.20;9.40;;;;;;;;;;5012250;28;20424;-60
2023/06/09 05:41:51;;;;;;;11.10;9.73;;;;;;;;;;5013196;28;20424;-60
2023/06/09 05:44:18;;;;;;;10.37;9.57;;;;;;;;;;5013377;28;20461;-60
2023/06/09 05:46:44;;;;;;;10.27;9.37;;;;;;;;;;5013177;28;20444;-60
2023/06/09 05:49:13;;;;;;;10.70;9.70;;;;;;;;;;5013383;28;20499;-60
2023/06/09 05:51:38;;;;;;;10.07;9.13;;;;;;;;;;5013168;28;20495;-60
2023/06/09 05:54:06;;;;;;;10.60;9.70;;;;;;;;;;5013162;28;20464;-60
2023/06/09 05:56:32;;;;;;;11.17;10.03;;;;;;;;;;5013377;28;20421;-60
2023/06/09 05:59:02;;;;;;;13.30;8.83;;;;;;;;;;5013104;28;20480;-60
2023/06/09 06:01:30;;;;;;;11.90;10.00;;;;;;;;;;5013113;28;20474;-60
2023/06/09 06:03:58;;;;;;;11.20;9.87;;;;;;;;;;5012673;28;20468;-60
2023/06/09 06:06:26;;;;;;;11.93;9.33;;;;;;;;;;5012564;28;20446;-60
2023/06/09 06:08:52;;;;;;;11.53;10.40;;;;;;;;;;5012784;28;20422;-60
2023/06/09 06:11:18;;;;;;;9.97;9.17;;;;;;;;;;5012995;28;20464;-60
2023/06/09 06:13:44;;;;;;;9.87;9.10;;;;;;;;;;5012685;28;20480;-60
2023/06/09 06:16:10;;;;;;;10.03;9.10;;;;;;;;;;5012938;28;20470;-60
2023/06/09 06:18:36;;;;;;;10.60;9.70;;;;;;;;;;5012788;28;20441;-60
2023/06/09 06:21:02;;;;;;;11.00;10.03;;;;;;;;;;5012606;28;20409;-60
2023/06/09 06:23:28;;;;;;;9.67;8.80;;;;;;;;;;5011336;28;20844;-60
2023/06/09 06:25:54;;;;;;;12.47;9.20;;;;;;;;;;5012514;28;20475;-60
2023/06/09 06:28:20;;;;;;;10.87;9.77;;;;;;;;;;5012926;28;20778;-60
2023/06/09 06:30:47;;;;;;;10.60;9.70;;;;;;;;;;5012709;28;20416;-60
2023/06/09 06:33:13;;;;;;;10.13;9.10;;;;;;;;;;5012751;28;20414;-60
2023/06/09 06:35:39;;;;;;;9.80;9.03;;;;;;;;;;5012677;28;20427;-60
2023/06/09 06:38:05;;;;;;;9.07;8.37;;;;;;;;;;5012561;28;20446;-60
2023/06/09 06:40:31;;;;;;;37.53;26.10;;;;;;;;;;5012800;28;20420;-60
2023/06/09 06:42:57;;;;;;;91.90;56.73;;;;;;;;;;5012446;28;20415;-60
2023/06/09 06:45:25;;;;;;;29.93;17.73;;;;;;;;;;5012330;28;20472;-60
2023/06/09 06:47:52;;;;;;;11.30;10.30;;;;;;;;;;5012218;28;20899;-60
2023/06/09 06:50:18;;;;;;;9.80;9.00;;;;;;;;;;5015683;28;20404;-60
2023/06/09 06:52:45;;;;;;;10.77;9.70;;;;;;;;;;5016403;28;20485;-60
2023/06/09 06:55:14;;;;;;;9.73;8.90;;;;;;;;;;5016675;28;20411;-60
2023/06/09 06:57:41;;;;;;;9.30;7.90;;;;;;;;;;5016450;28;20448;-60
2023/06/09 07:00:16;;;;;;;8.33;7.83;;;;;;;;;;5016354;28;20426;-60
2023/06/09 07:02:43;;;;;;;8.93;8.30;;;;;;;;;;5016372;28;20470;-60
2023/06/09 07:05:09;;;;;;;9.83;9.13;;;;;;;;;;5016450;28;20465;-60
2023/06/09 07:07:35;;;;;;;11.67;8.50;;;;;;;;;;5016241;28;20537;-60
2023/06/09 07:10:04;;;;;;;8.80;8.30;;;;;;;;;;5015938;28;20896;-60
2023/06/09 07:12:30;;;;;;;9.30;8.40;;;;;;;;;;5016188;28;20432;-60
2023/06/09 07:14:58;;;;;;;10.30;8.17;;;;;;;;;;5015992;28;20434;-60
2023/06/09 07:17:27;;;;;;;9.00;8.40;;;;;;;;;;5015144;28;20436;-60
2023/06/09 07:19:53;;;;;;;8.27;7.77;;;;;;;;;;5016108;28;20418;-60
2023/06/09 07:22:21;;;;;;;8.60;8.00;;;;;;;;;;5016140;28;20405;-60
2023/06/09 07:24:47;;;;;;;9.80;9.20;;;;;;;;;;5016180;28;20482;-60
2023/06/09 07:27:13;;;;;;;12.40;8.67;;;;;;;;;;5016004;28;20436;-60
2023/06/09 07:29:41;;;;;;;10.10;9.20;;;;;;;;;;5015574;28;20408;-60
2023/06/09 07:32:07;;;;;;;10.53;9.53;;;;;;;;;;5015747;28;20906;-60
2023/06/09 07:34:37;;;;;;;9.60;8.80;;;;;;;;;;5015711;28;20499;-60
2023/06/09 07:37:04;;;;;;;10.03;8.27;;;;;;;;;;5015663;28;20990;-60
2023/06/09 07:39:30;;;;;;;9.27;8.50;;;;;;;;;;5015843;28;20415;-60
2023/06/09 07:41:56;;;;;;;8.63;8.00;;;;;;;;;;5015735;28;20433;-60
2023/06/09 07:44:24;;;;;;;8.90;8.20;;;;;;;;;;5015627;28;20967;-60
2023/06/09 07:46:52;;;;;;;8.57;7.80;;;;;;;;;;5015738;28;20578;-60
2023/06/09 07:49:18;;;;;;;8.80;8.10;;;;;;;;;;5014298;28;20412;-60
2023/06/09 07:51:46;;;;;;;12.33;7.90;;;;;;;;;;5014060;28;20447;-60
2023/06/09 07:54:12;;;;;;;8.40;7.70;;;;;;;;;;5015470;28;20413;-60
2023/06/09 07:56:38;;;;;;;7.67;7.27;;;;;;;;;;5014094;28;20857;-60
2023/06/09 07:59:06;;;;;;;9.97;8.70;;;;;;;;;;5015436;28;20456;-60
2023/06/09 08:01:32;;;;;;;7.90;7.50;;;;;;;;;;5015342;28;20455;-60
2023/06/09 08:04:01;;;;;;;9.00;8.40;;;;;;;;;;5015295;28;20417;-60
2023/06/09 08:06:28;;;;;;;13.70;10.57;;;;;;;;;;5015245;28;20419;-60
2023/06/09 08:08:55;;;;;;;8.03;7.47;;;;;;;;;;5015174;28;20418;-60
2023/06/09 08:11:21;;;;;;;8.53;7.73;;;;;;;;;;5014923;28;20444;-60
2023/06/09 08:13:49;;;;;;;19.20;7.67;;;;;;;;;;5014721;28;20593;-60
2023/06/09 08:16:15;;;;;;;8.43;7.77;;;;;;;;;;5014523;28;20434;-60
2023/06/09 08:18:41;;;;;;;8.40;7.80;;;;;;;;;;5014808;28;20563;-60
2023/06/09 08:21:07;;;;;;;8.43;7.67;;;;;;;;;;5014638;28;20886;-60
2023/06/09 08:23:33;;;;;;;8.47;7.90;;;;;;;;;;5013435;28;20520;-60
2023/06/09 08:26:01;;;;;;;8.60;8.00;;;;;;;;;;5014875;28;20511;-60
2023/06/09 08:28:30;;;;;;;9.20;8.50;;;;;;;;;;5014850;28;20446;-60
2023/06/09 08:30:56;;;;;;;7.50;7.03;;;;;;;;;;5015091;28;20423;-60
2023/06/09 08:33:22;;;;;;;7.87;7.37;;;;;;;;;;5014670;28;20441;-60
2023/06/09 08:35:48;;;;;;;8.53;7.80;;;;;;;;;;5014824;28;20768;-60
2023/06/09 08:38:17;;;;;;;8.50;7.80;;;;;;;;;;5014765;28;20426;-60
2023/06/09 08:40:43;;;;;;;8.77;8.00;;;;;;;;;;5014714;28;20459;-60
2023/06/09 08:43:08;;;;;;;7.60;7.00;;;;;;;;;;5014720;28;21003;-60
2023/06/09 08:45:39;;;;;;;7.67;7.07;;;;;;;;;;5014545;28;20559;-60
2023/06/09 08:48:06;;;;;;;11.80;7.30;;;;;;;;;;5014477;28;20518;-64
2023/06/09 08:50:34;;;;;;;8.00;7.40;;;;;;;;;;5014258;28;20412;-61
2023/06/09 08:53:00;;;;;;;8.23;7.53;;;;;;;;;;5014514;28;20439;-61
2023/06/09 08:55:26;;;;;;;8.13;7.57;;;;;;;;;;5014333;28;20431;-61
2023/06/09 08:57:52;;;;;;;8.23;7.73;;;;;;;;;;5014321;28;20426;-61
2023/06/09 09:00:19;;;;;;;8.83;8.10;;;;;;;;;;5014323;28;20513;-61
2023/06/09 09:02:45;;;;;;;9.23;8.33;;;;;;;;;;5014223;28;20417;-62
2023/06/09 09:05:11;;;;;;;8.17;7.40;;;;;;;;;;5013829;28;20480;-61
2023/06/09 09:07:37;;;;;;;8.03;7.53;;;;;;;;;;5013853;28;20451;-61
2023/06/09 09:10:03;;;;;;;8.03;7.40;;;;;;;;;;5013965;28;20774;-61
2023/06/09 09:12:45;;;;;;;7.50;6.90;;;;;;;;;;5013241;28;20434;-60
2023/06/09 09:15:13;;;;;;;7.60;7.17;;;;;;;;;;5014173;28;20429;-61
2023/06/09 09:17:45;;;;;;;7.70;7.00;;;;;;;;;;5013707;28;20443;-61
2023/06/09 09:20:11;;;;;;;7.90;7.27;;;;;;;;;;5013857;28;20499;-61
2023/06/09 09:22:51;;;;;;;7.80;7.13;;;;;;;;;;5013576;28;20438;-61
2023/06/09 09:25:23;;;;;;;7.60;6.90;;;;;;;;;;5013623;28;20464;-61
2023/06/09 09:28:09;;;;;;;7.80;7.30;;;;;;;;;;5013730;28;20439;-61
2023/06/09 09:30:41;;;;;;;8.27;7.47;;;;;;;;;;5013545;28;20410;-61
2023/06/09 09:33:12;;;;;;;8.20;7.60;;;;;;;;;;5012331;28;20601;-61
2023/06/09 09:35:39;;;;;;;8.27;7.77;;;;;;;;;;5013616;28;20435;-61
2023/06/09 09:38:10;;;;;;;10.83;7.37;;;;;;;;;;5013406;28;20945;-62
2023/06/09 09:40:41;;;;;;;7.60;6.90;;;;;;;;;;5013593;28;20785;-61
2023/06/09 09:43:10;;;;;;;6.83;6.43;;;;;;;;;;5013352;28;20590;-61
2023/06/09 09:45:39;;;;;;;11.40;7.43;;;;;;;;;;5013166;28;20467;-60
2023/06/09 09:48:09;;;;;;;7.27;6.83;;;;;;;;;;5013255;28;20442;-61
2023/06/09 09:50:38;;;;;;;9.20;7.00;;;;;;;;;;5013361;28;20416;-61
2023/06/09 09:53:04;;;;;;;7.47;6.63;;;;;;;;;;5013274;28;20511;-61
2023/06/09 09:55:31;;;;;;;7.93;7.53;;;;;;;;;;5013506;28;20416;-61
2023/06/09 09:57:59;;;;;;;7.27;6.93;;;;;;;;;;5013208;28;20442;-61
2023/06/09 10:00:25;;;;;;;8.60;8.00;;;;;;;;;;5013125;28;20427;-61
2023/06/09 10:02:53;;;;;;;10.60;9.53;;;;;;;;;;5013143;28;20939;-61
2023/06/09 10:05:21;;;;;;;7.43;6.80;;;;;;;;;;5013267;28;21010;-61
2023/06/09 10:07:51;;;;;;;7.90;7.43;;;;;;;;;;5013047;28;20418;-61
2023/06/09 10:10:18;;;;;;;7.33;6.70;;;;;;;;;;5012311;28;20408;-61
2023/06/09 10:12:45;;;;;;;8.73;8.07;;;;;;;;;;5010991;28;20872;-61
2023/06/09 10:15:11;;;;;;;8.50;7.90;;;;;;;;;;5013138;28;20910;-61
2023/06/09 10:17:37;;;;;;;7.23;6.70;;;;;;;;;;5012680;28;20461;-61
2023/06/09 10:20:08;;;;;;;7.60;7.20;;;;;;;;;;5012808;28;20448;-61
2023/06/09 10:22:34;;;;;;;8.03;7.47;;;;;;;;;;5012671;28;20415;-61
2023/06/09 10:25:03;;;;;;;6.50;6.10;;;;;;;;;;5011763;28;20829;-61
2023/06/09 10:27:32;;;;;;;6.70;6.40;;;;;;;;;;5012807;28;20450;-62
2023/06/09 10:29:58;;;;;;;7.90;7.20;;;;;;;;;;5012983;28;20491;-61
2023/06/09 10:32:26;;;;;;;8.07;7.37;;;;;;;;;;5012758;28;20498;-61
2023/06/09 10:34:53;;;;;;;7.60;7.10;;;;;;;;;;5011342;28;20422;-61
2023/06/09 10:37:41;;;;;;;7.90;7.40;;;;;;;;;;5012737;28;20440;-61
2023/06/09 10:40:10;;;;;;;7.20;6.67;;;;;;;;;;5012623;28;20420;-61
2023/06/09 10:42:59;;;;;;;7.23;6.63;;;;;;;;;;5012681;28;20424;-61
2023/06/09 10:45:29;;;;;;;8.40;7.80;;;;;;;;;;5004680;28;20481;-61
2023/06/09 10:47:55;;;;;;;7.67;7.07;;;;;;;;;;5012573;28;20419;-61
2023/06/09 10:50:21;;;;;;;8.00;7.23;;;;;;;;;;5012738;28;20903;-61
2023/06/09 10:52:47;;;;;;;9.40;7.63;;;;;;;;;;5012617;28;20474;-61
2023/06/09 10:55:15;;;;;;;7.20;6.80;;;;;;;;;;5012942;28;20210;-61
2023/06/09 10:57:41;;;;;;;8.73;6.50;;;;;;;;;;5012542;28;20454;-61
2023/06/09 11:00:11;;;;;;;7.43;6.67;;;;;;;;;;5012548;28;20446;-61
2023/06/09 11:02:41;;;;;;;12.23;6.73;;;;;;;;;;5012578;28;20429;-61
2023/06/09 11:05:07;;;;;;;6.20;5.90;;;;;;;;;;5012504;28;20467;-61
2023/06/09 11:07:53;;;;;;;6.63;6.23;;;;;;;;;;5012684;28;20405;-61
2023/06/09 11:10:19;;;;;;;7.70;7.20;;;;;;;;;;5012192;28;20486;-61
2023/06/09 11:12:46;;;;;;;7.80;7.10;;;;;;;;;;5012334;28;20436;-61
2023/06/09 11:15:15;;;;;;;7.63;7.20;;;;;;;;;;5012511;28;20511;-61
2023/06/09 11:17:44;;;;;;;8.03;7.30;;;;;;;;;;5012476;28;20872;-61
2023/06/09 11:20:10;;;;;;;7.43;7.03;;;;;;;;;;5012411;28;20464;-62
2023/06/09 11:22:58;;;;;;;8.40;7.70;;;;;;;;;;5012281;28;20915;-61
2023/06/09 11:25:26;;;;;;;6.53;6.13;;;;;;;;;;5012408;28;20919;-62
2023/06/09 11:27:55;;;;;;;7.57;7.13;;;;;;;;;;5012296;28;20425;-61
2023/06/09 11:30:23;;;;;;;7.23;6.83;;;;;;;;;;5012436;28;20447;-61
2023/06/09 11:32:53;;;;;;;7.30;6.90;;;;;;;;;;5012182;28;20435;-61
2023/06/09 11:35:31;;;;;;;13.83;12.83;;;;;;;;;;5013588;28;20433;-61
2023/06/09 11:38:07;;;;;;;6.80;6.40;;;;;;;;;;5015825;28;20413;-61
2023/06/09 11:40:54;;;;;;;7.07;6.63;;;;;;;;;;5015910;28;20444;-61
2023/06/09 11:43:22;;;;;;;7.23;6.87;;;;;;;;;;5016267;28;20566;-61
2023/06/09 11:45:51;;;;;;;7.13;6.73;;;;;;;;;;5015546;28;20963;-61
2023/06/09 11:48:17;;;;;;;7.27;6.67;;;;;;;;;;5015845;28;20462;-61
2023/06/09 11:50:44;;;;;;;6.77;6.47;;;;;;;;;;5015800;28;20420;-61
2023/06/09 11:53:11;;;;;;;6.37;5.80;;;;;;;;;;5014423;28;20417;-61
2023/06/09 11:55:38;;;;;;;6.40;5.93;;;;;;;;;;5015647;28;20461;-62
2023/06/09 11:58:05;;;;;;;6.63;6.13;;;;;;;;;;5015440;28;20960;-61
2023/06/09 12:00:32;;;;;;;6.93;6.30;;;;;;;;;;5015516;28;20428;-61
2023/06/09 12:02:59;;;;;;;6.60;6.00;;;;;;;;;;5015285;28;20421;-61
2023/06/09 12:05:28;;;;;;;8.50;5.70;;;;;;;;;;5015361;28;20484;-61
2023/06/09 12:07:57;;;;;;;6.90;6.57;;;;;;;;;;5015724;28;20499;-61
2023/06/09 12:10:26;;;;;;;5.87;5.57;;;;;;;;;;5015329;28;20513;-61
2023/06/09 12:12:53;;;;;;;6.50;6.20;;;;;;;;;;5015084;28;20485;-61
2023/06/09 12:15:20;;;;;;;5.77;5.30;;;;;;;;;;5015242;28;20413;-61
2023/06/09 12:17:48;;;;;;;6.23;5.80;;;;;;;;;;5015254;28;20428;-61
2023/06/09 12:20:32;;;;;;;5.87;5.47;;;;;;;;;;5015099;28;20433;-61
2023/06/09 12:23:14;;;;;;;6.00;5.47;;;;;;;;;;5015029;28;20436;-61
2023/06/09 12:25:41;;;;;;;6.33;5.33;;;;;;;;;;5014980;28;20503;-62
2023/06/09 12:28:13;;;;;;;5.83;5.43;;;;;;;;;;5015334;28;20397;-62
2023/06/09 12:30:40;;;;;;;5.53;5.20;;;;;;;;;;5014919;28;20417;-62
2023/06/09 12:33:08;;;;;;;6.77;5.87;;;;;;;;;;5014736;28;20418;-61
2023/06/09 12:35:47;;;;;;;5.23;4.80;;;;;;;;;;5013692;28;20443;-60
2023/06/09 12:38:23;;;;;;;4.60;4.50;;;;;;;;;;5014974;28;20435;-60
2023/06/09 12:40:51;;;;;;;6.63;5.63;;;;;;;;;;5014610;28;20829;-60
2023/06/09 12:43:21;;;;;;;6.20;5.20;;;;;;;;;;5014537;28;20417;-60
2023/06/09 12:45:47;;;;;;;5.23;5.03;;;;;;;;;;5014408;28;20508;-60
2023/06/09 12:48:13;;;;;;;5.20;5.03;;;;;;;;;;5013874;28;20483;-59
2023/06/09 12:50:39;;;;;;;5.90;5.60;;;;;;;;;;5014610;28;20465;-60
2023/06/09 12:53:09;;;;;;;9.37;5.83;;;;;;;;;;5014291;28;20425;-62
2023/06/09 12:55:35;;;;;;;5.67;5.27;;;;;;;;;;5014366;28;20523;-62
2023/06/09 12:58:02;;;;;;;7.73;5.50;;;;;;;;;;5014446;28;20460;-62
2023/06/09 13:00:29;;;;;;;7.30;6.70;;;;;;;;;;5013080;28;20441;-62
2023/06/09 13:02:55;;;;;;;6.17;5.30;;;;;;;;;;5014191;28;20427;-62
2023/06/09 13:05:30;;;;;;;6.90;5.57;;;;;;;;;;5014177;28;20472;-62
2023/06/09 13:07:56;;;;;;;5.50;5.30;;;;;;;;;;5014555;28;20405;-62
2023/06/09 13:10:22;;;;;;;5.77;5.00;;;;;;;;;;5014153;28;20440;-62
2023/06/09 13:12:50;;;;;;;4.53;4.43;;;;;;;;;;5014025;28;20436;-62
2023/06/09 13:15:19;;;;;;;5.00;4.80;;;;;;;;;;5013972;28;20990;-62
2023/06/09 13:17:45;;;;;;;5.23;5.07;;;;;;;;;;5014028;28;20506;-62
2023/06/09 13:20:13;;;;;;;6.00;5.50;;;;;;;;;;5014020;28;20816;-60
2023/06/09 13:22:40;;;;;;;5.80;5.50;;;;;;;;;;5013788;28;20496;-60
2023/06/09 13:25:06;;;;;;;5.50;5.20;;;;;;;;;;5013633;28;20838;-59
2023/06/09 13:27:32;;;;;;;5.57;5.03;;;;;;;;;;5013791;28;20912;-62
2023/06/09 13:29:58;;;;;;;5.87;5.47;;;;;;;;;;5013776;28;20532;-61
2023/06/09 13:32:24;;;;;;;5.27;4.90;;;;;;;;;;5013611;28;20424;-62
2023/06/09 13:34:52;;;;;;;4.30;4.10;;;;;;;;;;5013522;28;20445;-61
2023/06/09 13:37:18;;;;;;;5.03;4.63;;;;;;;;;;5013747;28;20869;-62
2023/06/09 13:39:45;;;;;;;5.27;4.97;;;;;;;;;;5013691;28;20499;-62
2023/06/09 13:42:11;;;;;;;4.63;4.43;;;;;;;;;;5013502;28;20449;-62
2023/06/09 13:44:38;;;;;;;5.23;4.57;;;;;;;;;;5013611;28;20512;-61
2023/06/09 13:47:05;;;;;;;4.73;4.20;;;;;;;;;;5013400;28;20819;-61
2023/06/09 13:49:33;;;;;;;4.80;4.50;;;;;;;;;;5013392;28;20422;-61
2023/06/09 13:52:01;;;;;;;4.87;4.50;;;;;;;;;;5013419;28;20425;-62
2023/06/09 13:54:27;;;;;;;9.47;4.60;;;;;;;;;;5013407;28;20424;-61
2023/06/09 13:56:53;;;;;;;4.43;4.33;;;;;;;;;;5013137;28;20421;-62
2023/06/09 13:59:19;;;;;;;5.17;4.97;;;;;;;;;;5012853;28;20487;-62
2023/06/09 14:01:46;;;;;;;4.67;4.43;;;;;;;;;;5013400;28;20413;-61
2023/06/09 14:04:12;;;;;;;4.40;4.10;;;;;;;;;;5013088;28;20417;-61
2023/06/09 14:06:38;;;;;;;4.20;4.10;;;;;;;;;;5013156;28;20424;-61
2023/06/09 14:09:07;;;;;;;4.97;4.77;;;;;;;;;;5013257;28;20467;-61
2023/06/09 14:11:36;;;;;;;5.07;4.80;;;;;;;;;;5012919;28;20950;-61
2023/06/09 14:14:02;;;;;;;4.83;4.60;;;;;;;;;;5013190;28;20432;-61
2023/06/09 14:16:29;;;;;;;4.60;4.50;;;;;;;;;;5012946;28;20420;-61
2023/06/09 14:18:55;;;;;;;5.10;4.70;;;;;;;;;;5011572;28;20448;-61
2023/06/09 14:21:21;;;;;;;5.27;4.70;;;;;;;;;;5011430;28;20456;-61
2023/06/09 14:23:47;;;;;;;5.50;5.17;;;;;;;;;;5012935;28;20413;-61
2023/06/09 14:26:15;;;;;;;4.30;4.20;;;;;;;;;;5012745;28;20504;-62
2023/06/09 14:28:44;;;;;;;5.00;4.70;;;;;;;;;;5012969;28;20911;-62
2023/06/09 14:31:10;;;;;;;4.40;4.17;;;;;;;;;;5013000;28;20436;-61
2023/06/09 14:33:36;;;;;;;4.50;4.30;;;;;;;;;;5012789;28;20417;-61
2023/06/09 14:36:05;;;;;;;4.37;4.07;;;;;;;;;;5012667;28;20476;-61
2023/06/09 14:38:31;;;;;;;3.87;3.77;;;;;;;;;;5012754;28;20408;-61
2023/06/09 14:40:58;;;;;;;4.60;4.20;;;;;;;;;;5012912;28;20443;-62
2023/06/09 14:43:24;;;;;;;4.50;4.20;;;;;;;;;;5012657;28;20417;-61
2023/06/09 14:45:50;;;;;;;4.00;3.90;;;;;;;;;;5011566;28;20525;-62